createdAt,value
2018-09-28T04:24:46.219Z,99.90
2018-09-28T04:27:15.507Z,99.90
2018-09-28T04:29:45.203Z,99.90
2018-09-28T04:32:15.835Z,99.90
2018-09-28T04:34:44.706Z,99.90
2018-09-28T04:37:14.407Z,99.90
2018-09-28T04:39:43.343Z,99.90
2018-09-28T04:42:12.238Z,99.90
2018-09-28T04:44:44.225Z,99.90
2018-09-28T04:47:16.305Z,99.90
2018-09-28T04:49:45.203Z,99.90
2018-09-28T04:52:13.874Z,99.90
2018-09-28T04:54:42.503Z,99.90
2018-09-28T04:57:11.272Z,99.90
2018-09-28T04:59:39.854Z,99.90
2018-09-28T05:02:08.628Z,99.90
2018-09-28T05:04:37.991Z,99.90
2018-09-28T05:07:06.934Z,99.90
2018-09-28T05:09:35.592Z,99.90
2018-09-28T05:12:04.522Z,99.90
2018-09-28T05:14:33.259Z,99.90
2018-09-28T05:17:01.960Z,99.90
2018-09-28T05:19:30.715Z,99.90
2018-09-28T05:21:59.343Z,99.90
2018-09-28T05:24:27.969Z,99.90
2018-09-28T05:26:56.602Z,99.90
2018-09-28T05:29:25.185Z,99.90
2018-09-28T05:31:53.895Z,99.90
2018-09-28T05:34:23.160Z,99.90
2018-09-28T05:36:51.866Z,99.90
2018-09-28T05:39:20.566Z,99.90
2018-09-28T05:41:49.160Z,99.90
2018-09-28T05:44:17.730Z,99.90
2018-09-28T05:46:47.499Z,99.90
2018-09-28T05:49:16.114Z,99.90
2018-09-28T05:51:44.752Z,99.90
2018-09-28T05:54:13.350Z,99.90
2018-09-28T05:56:41.939Z,99.90
2018-09-28T05:59:15.893Z,99.90
2018-09-28T06:01:49.768Z,99.90
2018-09-28T06:06:33.271Z,99.90
2018-09-28T06:09:01.929Z,99.90
2018-09-28T06:11:31.227Z,99.90
2018-09-28T06:14:01.705Z,99.90
2018-09-28T06:16:37.662Z,99.90
2018-09-28T06:19:14.974Z,99.90
2018-09-28T06:21:45.268Z,99.90
2018-09-28T06:24:14.146Z,99.90
2018-09-28T06:26:42.896Z,99.90
2018-09-28T06:29:14.573Z,99.90
2018-09-28T06:31:48.346Z,99.90
2018-09-28T06:34:17.500Z,99.90
2018-09-28T06:36:46.318Z,99.90
2018-09-28T06:39:15.677Z,99.90
2018-09-28T06:41:56.080Z,99.90
2018-09-28T06:44:24.932Z,99.90
2018-09-28T06:46:53.550Z,99.90
2018-09-28T06:49:22.151Z,99.90
2018-09-28T06:51:50.762Z,99.90
2018-09-28T06:54:19.480Z,99.90
2018-09-28T06:56:48.008Z,99.90
2018-09-28T06:59:16.690Z,99.90
2018-09-28T07:01:45.381Z,99.90
2018-09-28T07:04:13.953Z,99.90
2018-09-28T07:06:42.934Z,99.90
2018-09-28T07:09:12.762Z,99.90
2018-09-28T07:11:41.692Z,99.90
2018-09-28T07:14:10.954Z,96.90
2018-09-28T07:16:39.952Z,68.80
2018-09-28T07:19:08.855Z,54.50
2018-09-28T07:21:37.583Z,47.50
2018-09-28T07:24:06.254Z,41.70
2018-09-28T07:26:34.827Z,38.10
2018-09-28T07:29:03.467Z,35.20
2018-09-28T07:31:32.311Z,32.90
2018-09-28T07:34:01.025Z,31.90
2018-09-28T07:36:29.757Z,30.70
2018-09-28T07:38:58.312Z,29.30
2018-09-28T07:41:26.954Z,28.00
2018-09-28T07:43:56.212Z,26.50
2018-09-28T07:46:24.858Z,25.30
2018-09-28T07:48:53.444Z,24.60
2018-09-28T07:51:22.026Z,23.70
2018-09-28T07:53:50.665Z,23.50
2018-09-28T07:56:19.482Z,22.70
2018-09-28T07:58:48.122Z,22.20
2018-09-28T08:01:16.780Z,22.40
2018-09-28T08:03:45.406Z,22.70
2018-09-28T08:06:14.038Z,23.10
2018-09-28T08:08:42.669Z,22.80
2018-09-28T08:11:11.216Z,22.30
2018-09-28T08:13:39.823Z,21.80
2018-09-28T08:16:08.482Z,21.10
2018-09-28T08:18:37.085Z,20.20
2018-09-28T08:21:05.757Z,19.70
2018-09-28T08:23:34.391Z,19.70
2018-09-28T08:26:03.077Z,19.60
2018-09-28T08:28:31.702Z,19.40
2018-09-28T08:31:00.328Z,19.40
2018-09-28T08:33:28.903Z,19.30
2018-09-28T08:35:57.467Z,18.40
2018-09-28T08:38:26.046Z,18.30
2018-09-28T08:40:54.628Z,17.70
2018-09-28T08:43:23.321Z,17.60
2018-09-28T08:45:51.936Z,17.60
2018-09-28T08:48:20.588Z,17.20
2018-09-28T08:50:49.209Z,16.80
2018-09-28T08:53:17.830Z,16.40
2018-09-28T08:55:46.484Z,16.30
2018-09-28T08:58:15.061Z,16.30
2018-09-28T09:00:43.690Z,16.40
2018-09-28T09:03:12.293Z,18.00
2018-09-28T09:05:40.951Z,17.70
2018-09-28T09:08:09.552Z,17.10
2018-09-28T09:10:38.126Z,17.10
2018-09-28T09:13:06.735Z,17.20
2018-09-28T09:15:35.371Z,17.10
2018-09-28T09:18:04.118Z,17.20
2018-09-28T09:20:32.671Z,16.70
2018-09-28T09:23:01.381Z,17.30
2018-09-28T09:25:30.365Z,16.30
2018-09-28T09:27:59.906Z,16.70
2018-09-28T09:30:28.560Z,16.70
2018-09-28T09:32:57.270Z,16.30
2018-09-28T09:35:26.026Z,16.50
2018-09-28T09:37:54.669Z,15.60
2018-09-28T09:40:23.325Z,17.20
2018-09-28T09:42:52.044Z,17.50
2018-09-28T09:45:20.607Z,17.50
2018-09-28T09:47:49.251Z,17.80
2018-09-28T09:50:17.936Z,16.80
2018-09-28T09:52:46.618Z,16.10
2018-09-28T09:55:15.254Z,15.30
2018-09-28T09:57:43.927Z,15.40
2018-09-28T10:00:16.764Z,15.60
2018-09-28T10:02:50.849Z,15.60
2018-09-28T10:05:19.489Z,15.00
2018-09-28T10:07:48.184Z,15.70
2018-09-28T10:10:16.814Z,15.50
2018-09-28T10:12:46.456Z,15.20
2018-09-28T10:15:15.757Z,14.90
2018-09-28T10:17:44.434Z,15.40
2018-09-28T10:20:13.035Z,15.00
2018-09-28T10:22:41.767Z,15.90
2018-09-28T10:25:10.407Z,14.30
2018-09-28T10:27:39.114Z,13.10
2018-09-28T10:30:08.074Z,12.40
2018-09-28T10:32:36.647Z,12.20
2018-09-28T10:35:06.121Z,12.30
2018-09-28T10:37:34.839Z,13.40
2018-09-28T10:40:03.467Z,13.20
2018-09-28T10:42:32.121Z,14.50
2018-09-28T10:45:00.729Z,15.00
2018-09-28T10:47:29.377Z,14.40
2018-09-28T10:49:57.946Z,14.40
2018-09-28T10:52:26.772Z,14.40
2018-09-28T10:54:55.165Z,14.00
2018-09-28T10:57:23.850Z,13.90
2018-09-28T10:59:52.462Z,13.80
2018-09-28T11:02:21.167Z,14.00
2018-09-28T11:04:50.007Z,13.60
2018-09-28T11:07:21.336Z,14.00
2018-09-28T11:09:50.099Z,13.50
2018-09-28T11:12:19.095Z,13.60
2018-09-28T11:14:47.730Z,14.30
2018-09-28T11:17:16.951Z,13.60
2018-09-28T11:19:46.305Z,14.10
2018-09-28T11:22:14.942Z,13.30
2018-09-28T11:24:43.589Z,14.40
2018-09-28T11:27:12.295Z,14.10
2018-09-28T11:29:40.930Z,15.90
2018-09-28T11:32:09.682Z,15.60
2018-09-28T11:34:38.335Z,16.60
2018-09-28T11:37:06.962Z,16.90
2018-09-28T11:39:35.705Z,17.80
2018-09-28T11:42:04.445Z,17.80
2018-09-28T11:44:33.084Z,18.10
2018-09-28T11:47:01.735Z,17.90
2018-09-28T11:49:31.249Z,17.90
2018-09-28T11:51:59.954Z,17.70
2018-09-28T11:54:29.051Z,17.10
2018-09-28T11:56:58.296Z,17.50
2018-09-28T11:59:26.962Z,18.40
2018-09-28T12:01:55.694Z,17.80
2018-09-28T12:04:24.391Z,18.50
2018-09-28T12:07:00.388Z,17.80
2018-09-28T12:09:42.707Z,18.20
2018-09-28T12:12:22.552Z,17.70
2018-09-28T12:14:59.195Z,18.90
2018-09-28T12:20:13.611Z,21.80
2018-09-28T12:22:57.304Z,21.70
2018-09-28T12:25:26.058Z,21.10
2018-09-28T12:27:54.634Z,21.40
2018-09-28T12:30:23.394Z,22.10
2018-09-28T12:32:52.872Z,21.30
2018-09-28T12:35:28.053Z,21.70
2018-09-28T12:37:57.157Z,22.50
2018-09-28T12:40:25.738Z,22.10
2018-09-28T12:42:55.830Z,21.80
2018-09-28T12:45:24.658Z,21.70
2018-09-28T12:47:53.294Z,21.30
2018-09-28T12:50:22.417Z,21.60
2018-09-28T12:52:51.012Z,21.20
2018-09-28T12:55:19.563Z,21.40
2018-09-28T12:57:48.125Z,21.00
2018-09-28T13:00:16.816Z,21.20
2018-09-28T13:02:45.479Z,20.70
2018-09-28T13:05:15.491Z,20.90
2018-09-28T13:07:46.121Z,21.00
2018-09-28T13:10:14.737Z,20.90
2018-09-28T13:12:43.419Z,21.20
2018-09-28T13:15:12.293Z,21.40
2018-09-28T13:17:40.998Z,21.40
2018-09-28T13:20:09.762Z,19.70
2018-09-28T13:22:38.812Z,19.20
2018-09-28T13:25:07.678Z,19.00
2018-09-28T13:27:36.293Z,19.70
2018-09-28T13:30:04.993Z,18.90
2018-09-28T13:32:33.727Z,20.60
2018-09-28T13:35:02.347Z,20.10
2018-09-28T13:37:30.974Z,19.60
2018-09-28T13:39:59.927Z,20.40
2018-09-28T13:42:28.622Z,20.10
2018-09-28T13:44:57.296Z,19.10
2018-09-28T13:47:25.938Z,19.00
2018-09-28T13:49:54.831Z,18.60
2018-09-28T13:52:23.626Z,19.00
2018-09-28T13:54:52.220Z,18.70
2018-09-28T13:57:20.733Z,20.10
2018-09-28T13:59:49.393Z,19.80
2018-09-28T14:02:18.016Z,19.90
2018-09-28T14:04:46.672Z,19.90
2018-09-28T14:07:15.305Z,19.60
2018-09-28T14:09:44.027Z,20.30
2018-09-28T14:12:14.572Z,19.30
2018-09-28T14:14:44.189Z,20.40
2018-09-28T14:17:14.181Z,21.30
2018-09-28T14:19:42.742Z,22.30
2018-09-28T14:22:11.274Z,23.90
2018-09-28T14:24:39.910Z,26.10
2018-09-28T14:27:08.945Z,26.30
2018-09-28T14:29:59.056Z,27.60
2018-09-28T14:33:52.908Z,28.00
2018-09-28T14:36:24.194Z,28.20
2018-09-28T14:42:29.798Z,29.90
2018-09-28T14:45:04.831Z,30.40
2018-09-28T14:47:34.677Z,29.90
2018-09-28T14:50:08.514Z,29.90
2018-09-28T14:52:37.141Z,30.10
2018-09-28T14:55:05.829Z,30.90
2018-09-28T14:57:34.441Z,31.30
2018-09-28T15:00:03.430Z,32.40
2018-09-28T15:02:32.379Z,33.20
2018-09-28T15:05:00.907Z,33.90
2018-09-28T15:07:30.073Z,35.00
2018-09-28T15:09:58.779Z,35.60
2018-09-28T15:12:27.498Z,35.90
2018-09-28T15:14:56.174Z,36.40
2018-09-28T15:17:24.809Z,36.10
2018-09-28T15:19:53.427Z,36.70
2018-09-28T15:22:22.076Z,37.40
2018-09-28T15:24:55.667Z,37.60
2018-09-28T15:27:24.429Z,38.10
2018-09-28T15:29:53.109Z,38.30
2018-09-28T15:32:21.935Z,37.70
2018-09-28T15:34:50.598Z,37.90
2018-09-28T15:37:19.337Z,38.40
2018-09-28T15:39:48.339Z,38.80
2018-09-28T15:42:17.169Z,39.50
2018-09-28T15:44:46.043Z,40.30
2018-09-28T15:47:14.635Z,40.90
2018-09-28T15:49:43.374Z,41.30
2018-09-28T15:52:12.040Z,41.40
2018-09-28T15:54:40.727Z,42.00
2018-09-28T15:57:09.504Z,42.20
2018-09-28T15:59:38.185Z,42.60
2018-09-28T16:02:07.231Z,43.00
2018-09-28T16:04:35.788Z,43.10
2018-09-28T16:07:04.840Z,43.30
2018-09-28T16:09:33.422Z,43.70
2018-09-28T16:12:02.123Z,43.90
2018-09-28T16:14:30.746Z,44.50
2018-09-28T16:16:59.519Z,44.60
2018-09-28T16:19:28.258Z,44.70
2018-09-28T16:21:56.946Z,44.80
2018-09-28T16:24:26.474Z,45.20
2018-09-28T16:26:55.139Z,45.60
2018-09-28T16:29:23.842Z,45.60
2018-09-28T16:31:52.599Z,46.20
2018-09-28T16:34:21.512Z,46.60
2018-09-28T16:36:50.184Z,46.90
2018-09-28T16:39:18.718Z,47.00
2018-09-28T16:41:47.413Z,47.20
2018-09-28T16:44:16.021Z,47.50
2018-09-28T16:46:44.617Z,47.90
2018-09-28T16:49:13.638Z,48.10
2018-09-28T16:51:42.258Z,48.40
2018-09-28T16:54:11.982Z,48.70
2018-09-28T16:56:51.543Z,49.10
2018-09-28T16:59:24.857Z,49.30
2018-09-28T17:02:09.231Z,49.60
2018-09-28T17:04:39.237Z,49.90
2018-09-28T17:07:09.335Z,50.10
2018-09-28T17:09:40.435Z,50.50
2018-09-28T17:12:09.226Z,50.80
2018-09-28T17:14:37.896Z,51.30
2018-09-28T17:17:07.363Z,52.10
2018-09-28T17:19:37.016Z,52.10
2018-09-28T17:22:07.383Z,52.20
2018-09-28T17:24:36.359Z,52.60
2018-09-28T17:27:06.612Z,53.00
2018-09-28T17:29:36.206Z,53.00
2018-09-28T17:32:05.117Z,53.40
2018-09-28T17:34:34.570Z,53.90
2018-09-28T17:37:03.233Z,54.50
2018-09-28T17:39:32.483Z,55.00
2018-09-28T17:42:01.920Z,55.40
2018-09-28T17:44:31.406Z,55.90
2018-09-28T17:47:00.601Z,56.60
2018-09-28T17:49:29.186Z,56.90
2018-09-28T17:51:58.446Z,57.00
2018-09-28T17:54:27.159Z,55.50
2018-09-28T17:56:55.809Z,53.30
2018-09-28T17:59:25.485Z,51.20
2018-09-28T18:01:54.090Z,51.00
2018-09-28T18:04:22.927Z,51.20
2018-09-28T18:06:51.493Z,51.10
2018-09-28T18:09:21.048Z,51.80
2018-09-28T18:11:56.879Z,51.90
2018-09-28T18:14:26.751Z,52.30
2018-09-28T18:16:55.685Z,53.10
2018-09-28T18:19:25.438Z,53.60
2018-09-28T18:21:55.498Z,54.00
2018-09-28T18:24:27.318Z,54.50
2018-09-28T18:26:57.195Z,54.10
2018-09-28T18:29:25.983Z,54.40
2018-09-28T18:31:55.662Z,54.90
2018-09-28T18:34:25.618Z,55.30
2018-09-28T18:36:55.147Z,55.40
2018-09-28T18:39:24.508Z,56.10
2018-09-28T18:41:53.160Z,56.30
2018-09-28T18:44:22.742Z,56.60
2018-09-28T18:46:51.481Z,57.10
2018-09-28T18:49:20.167Z,57.60
2018-09-28T18:51:51.419Z,58.00
2018-09-28T18:54:21.634Z,58.50
2018-09-28T18:56:52.068Z,58.70
2018-09-28T18:59:21.829Z,59.10
2018-09-28T19:01:52.558Z,59.60
2018-09-28T19:04:21.390Z,59.90
2018-09-28T19:06:51.339Z,60.80
2018-09-28T19:09:20.044Z,61.20
2018-09-28T19:12:00.765Z,61.30
2018-09-28T19:14:29.939Z,61.60
2018-09-28T19:16:59.791Z,61.80
2018-09-28T19:19:29.144Z,62.10
2018-09-28T19:21:57.822Z,62.40
2018-09-28T19:24:26.921Z,62.90
2018-09-28T19:26:57.040Z,63.90
2018-09-28T19:29:32.436Z,64.80
2018-09-28T19:32:06.050Z,65.30
2018-09-28T19:34:35.286Z,65.70
2018-09-28T19:37:04.812Z,66.20
2018-09-28T19:39:33.566Z,66.70
2018-09-28T19:42:02.993Z,67.00
2018-09-28T19:44:32.575Z,67.90
2018-09-28T19:47:03.275Z,68.00
2018-09-28T19:49:31.916Z,68.90
2018-09-28T19:52:01.986Z,69.50
2018-09-28T19:54:37.387Z,70.60
2018-09-28T19:57:06.989Z,71.50
2018-09-28T19:59:37.538Z,72.50
2018-09-28T20:02:06.983Z,73.40
2018-09-28T20:04:40.760Z,74.60
2018-09-28T20:09:56.309Z,76.40
2018-09-28T20:12:25.027Z,77.00
2018-09-28T20:14:53.615Z,77.50
2018-09-28T20:17:23.092Z,78.00
2018-09-28T20:19:51.633Z,78.70
2018-09-28T20:22:20.175Z,79.40
2018-09-28T20:24:52.712Z,79.90
2018-09-28T20:27:21.277Z,80.10
2018-09-28T20:29:50.161Z,81.20
2018-09-28T20:32:18.978Z,81.50
2018-09-28T20:34:47.713Z,82.10
2018-09-28T20:37:16.249Z,87.00
2018-09-28T20:39:45.689Z,89.60
2018-09-28T20:42:14.627Z,91.40
2018-09-28T20:44:43.317Z,92.10
2018-09-28T20:47:11.942Z,93.10
2018-09-28T20:49:41.306Z,95.10
2018-09-28T20:52:10.286Z,97.70
2018-09-28T20:54:40.558Z,99.90
2018-09-28T21:00:13.239Z,99.90
2018-09-28T21:02:42.818Z,99.90
2018-09-28T21:05:27.161Z,99.90
2018-09-28T21:07:56.450Z,99.90
2018-09-28T21:10:25.730Z,99.90
2018-09-28T21:12:59.578Z,99.90
2018-09-28T21:15:30.731Z,99.90
2018-09-28T21:18:02.496Z,99.90
2018-09-28T21:20:32.459Z,99.90
2018-09-28T21:23:03.356Z,99.90
2018-09-28T21:25:34.231Z,99.90
2018-09-28T21:28:03.714Z,99.90
2018-09-28T21:30:34.041Z,99.90
2018-09-28T21:33:03.927Z,99.90
2018-09-28T21:35:33.168Z,99.90
2018-09-28T21:38:04.985Z,99.90
2018-09-28T21:40:38.833Z,99.90
2018-09-28T21:43:08.557Z,99.90
2018-09-28T21:45:39.085Z,99.90
2018-09-28T21:48:09.731Z,99.90
2018-09-28T21:50:40.078Z,99.90
2018-09-28T21:53:08.671Z,99.90
2018-09-28T21:55:39.030Z,99.90
2018-09-28T21:58:08.573Z,99.90
2018-09-28T22:00:44.828Z,99.90
2018-09-28T22:03:13.461Z,99.90
2018-09-28T22:05:42.102Z,99.90
2018-09-28T22:08:10.792Z,99.90
2018-09-28T22:10:40.217Z,99.90
2018-09-28T22:13:14.993Z,99.90
2018-09-28T22:15:44.048Z,99.90
2018-09-28T22:18:14.511Z,99.90
2018-09-28T22:20:45.486Z,99.90
2018-09-28T22:23:16.704Z,99.90
2018-09-28T22:25:45.967Z,99.90
2018-09-28T22:28:15.078Z,99.90
2018-09-28T22:30:43.695Z,99.90
2018-09-28T22:33:12.658Z,99.90
2018-09-28T22:35:41.319Z,99.90
2018-09-28T22:38:10.211Z,99.90
2018-09-28T22:40:39.862Z,99.90
2018-09-28T22:43:10.707Z,97.00
2018-09-28T22:45:41.029Z,94.00
2018-09-28T22:48:11.551Z,92.40
2018-09-28T22:50:41.196Z,92.50
2018-09-28T22:53:10.816Z,91.80
2018-09-28T22:55:40.206Z,91.40
2018-09-28T22:58:09.366Z,85.90
2018-09-28T23:00:44.776Z,88.60
2018-09-28T23:03:13.697Z,83.00
2018-09-28T23:05:42.303Z,79.70
2018-09-28T23:08:12.626Z,82.10
2018-09-28T23:10:42.873Z,80.70
2018-09-28T23:13:12.304Z,80.00
2018-09-28T23:15:42.963Z,82.50
2018-09-28T23:18:12.411Z,76.10
2018-09-28T23:20:41.710Z,78.30
2018-09-28T23:23:10.336Z,78.80
2018-09-28T23:25:39.599Z,78.10
2018-09-28T23:28:12.198Z,78.10
2018-09-28T23:30:41.838Z,76.40
2018-09-28T23:33:10.526Z,77.90
2018-09-28T23:35:41.209Z,75.50
2018-09-28T23:38:10.833Z,75.10
2018-09-28T23:40:41.176Z,77.00
2018-09-28T23:43:11.378Z,74.60
2018-09-28T23:45:41.638Z,75.60
2018-09-28T23:48:11.384Z,70.00
2018-09-28T23:50:40.827Z,72.40
2018-09-28T23:53:10.287Z,73.50
2018-09-28T23:55:39.805Z,73.50
2018-09-28T23:58:08.411Z,76.10
